Schenectady, NY (12008)

1:08 PM EDT on July 26, 2016 (GMT -0400)
Daily Gazette | | Change Station

Elev 295 ft 42.83 °N, 73.92 °W | Updated 26 seconds ago

Mostly Cloudy
Mostly Cloudy
82.0 °F
Feels Like 84 °F
N
2.9
Wind Variable Wind from SW
Gusts 17.0 mph

Today
High -- | Low -- °F
--% Chance of Precip.
Yesterday
High -- | Low -- °F
Precip. -- in
Pressure 29.90 in
Visibility 15.0 miles
Clouds Scattered Clouds 3900 ft
Mostly Cloudy 7000 ft
Heat Index 84 °F
Dew Point 64 °F
Humidity 55%
Rainfall in
Snow Depth Not available.
5:41 AM 8:22 PM
Waning Gibbous, 53% visible
METAR KSCH 261651Z 29010G16KT 15SM SCT039 BKN070 28/17 A2990
Pressure 29.90 in
Visibility 15.0 miles
Clouds Scattered Clouds 3900 ft
Mostly Cloudy 7000 ft
Heat Index 84 °F
Dew Point 64 °F
Humidity 55%
Rainfall in
Snow Depth Not available.
5:41 AM 8:22 PM
Waning Gibbous, 53% visible
METAR KSCH 261651Z 29010G16KT 15SM SCT039 BKN070 28/17 A2990

10-Day Weather Forecast

Almanac

Astronomy

Jul. 26, 2016 Rise Set
Actual Time
Civil Twilight
Nautical Twilight
Astronomical Twilight
Moon
Length of Visible Light
Length of Day
Tomorrow will be .
, % of the Moon is Illuminated

Today's Extremes

State Highs State Lows

Community

WunderPhotos

Upload Photos

1,927,635 photos uploaded!

WunderBlog® & News

Nearby

Air Quality

  Air Quality AQ Index Pollutant
Not available.

Snow Depth

Station Depth Elevation

Earthquake Activity

City Distance Mag. Time & Date
Minimum magnitude displayed is 2.5.

Coastal Water Temperatures

Place Temperature

Stations

Nearby Weather Stations

Station Location Temp. Windchill Dew Point Humidity Wind Precip. Elev Updated Type
                   

Watches & Warnings

There are currently no watches in effect.